Time;durP1;ratioP1;P1;durP2;ratioP2;P2;SDS_P1;SDS_P2;PMS_P1;PMS_P2;Temp;Humidity;BMP_temperature;BMP_pressure;BME280_temperature;BME280_humidity;BME280_pressure;Samples;Min_cycle;Max_cycle;Signal;HPM_P1;HPM_P2
2023/12/14 00:01:02;;;;;;;;;;;;;;;4.14;99.54;99669.72;4908110;29;19957;-73
2023/12/14 00:04:06;;;;;;;;;;;;;;;4.07;99.34;99676.88;4899596;29;20387;-73
2023/12/14 00:07:10;;;;;;;;;;;;;;;4.05;99.59;99685.59;4911598;29;19922;-73
2023/12/14 00:10:14;;;;;;;;;;;;;;;4.07;99.26;99687.22;4907506;29;19954;-73
2023/12/14 00:13:17;;;;;;;;;;;;;;;4.12;98.88;99694.81;4909617;29;19926;-73
2023/12/14 00:16:20;;;;;;;;;;;;;;;4.09;98.25;99695.78;4907563;29;20435;-73
2023/12/14 00:19:24;;;;;;;;;;;;;;;4.08;98.04;99708.75;4905332;29;20274;-73
2023/12/14 00:22:27;;;;;;;;;;;;;;;4.09;97.16;99710.47;4907211;29;19926;-73
2023/12/14 00:25:30;;;;;;;;;;;;;;;3.92;97.94;99722.31;4899205;29;19971;-73
2023/12/14 00:28:33;;;;;;;;;;;;;;;3.99;98.04;99724.63;4908186;29;20259;-73
2023/12/14 00:31:36;;;;;;;;;;;;;;;3.97;98.02;99716.94;4909045;29;19931;-73
2023/12/14 00:34:39;;;;;;;;;;;;;;;3.90;98.74;99736.19;4907612;29;19926;-73
2023/12/14 00:37:42;;;;;;;;;;;;;;;3.79;99.43;99736.56;4909691;29;19922;-74
2023/12/14 00:40:45;;;;;;;;;;;;;;;3.85;99.64;99746.69;4908629;29;20440;-73
2023/12/14 00:43:48;;;;;;;;;;;;;;;3.90;99.85;99755.13;4906583;29;19922;-73
2023/12/14 00:46:51;;;;;;;;;;;;;;;3.76;100.00;99759.94;4904602;29;19927;-73
2023/12/14 00:49:54;;;;;;;;;;;;;;;3.83;100.00;99771.78;4916401;29;20386;-73
2023/12/14 00:52:57;;;;;;;;;;;;;;;3.85;99.79;99769.97;4911932;29;19930;-73
2023/12/14 00:56:00;;;;;;;;;;;;;;;3.87;99.71;99777.69;4901190;29;19930;-74
2023/12/14 00:59:03;;;;;;;;;;;;;;;3.92;100.00;99781.78;4907520;29;19926;-73
2023/12/14 01:02:06;;;;;;;;;;;;;;;3.90;99.46;99785.31;4907450;29;19926;-73
2023/12/14 01:05:09;;;;;;;;;;;;;;;3.82;99.29;99785.59;4910454;29;19978;-73
2023/12/14 01:08:12;;;;;;;;;;;;;;;3.86;99.79;99799.25;4909799;29;20355;-73
2023/12/14 01:11:15;;;;;;;;;;;;;;;3.88;99.75;99803.47;4907392;29;19973;-73
2023/12/14 01:14:18;;;;;;;;;;;;;;;3.85;99.30;99806.16;4907247;29;19954;-73
2023/12/14 01:17:21;;;;;;;;;;;;;;;3.88;98.82;99811.22;4913036;29;20023;-73
2023/12/14 01:20:24;;;;;;;;;;;;;;;3.94;98.89;99812.75;4911157;29;19922;-73
2023/12/14 01:23:27;;;;;;;;;;;;;;;3.97;98.64;99823.81;4905833;29;19984;-73
2023/12/14 01:26:30;;;;;;;;;;;;;;;3.94;98.11;99820.50;4898257;29;19957;-73
2023/12/14 01:29:33;;;;;;;;;;;;;;;3.96;97.91;99829.06;4902337;29;19977;-73
2023/12/14 01:32:36;;;;;;;;;;;;;;;4.00;96.88;99834.97;4907088;29;20082;-74
2023/12/14 01:35:39;;;;;;;;;;;;;;;3.97;95.77;99838.50;4909037;29;20011;-74
2023/12/14 01:38:42;;;;;;;;;;;;;;;3.87;95.98;99839.75;4903776;29;19989;-74
2023/12/14 01:41:45;;;;;;;;;;;;;;;3.82;96.46;99842.47;4879444;29;19967;-74
2023/12/14 01:44:48;;;;;;;;;;;;;;;3.90;96.45;99850.81;4860804;29;20410;-74
2023/12/14 01:47:51;;;;;;;;;;;;;;;3.99;96.47;99851.38;4875913;29;20843;-74
2023/12/14 01:50:55;;;;;;;;;;;;;;;3.93;96.12;99858.47;4878620;29;19923;-74
2023/12/14 01:53:58;;;;;;;;;;;;;;;4.00;95.79;99863.44;4868044;29;19980;-74
2023/12/14 01:57:01;;;;;;;;;;;;;;;4.01;95.19;99870.28;4861503;29;20015;-74
2023/12/14 02:00:04;;;;;;;;;;;;;;;4.00;94.89;99866.84;4878586;29;19930;-74
2023/12/14 02:03:08;;;;;;;;;;;;;;;4.02;94.83;99871.97;4868384;29;19945;-74
2023/12/14 02:06:11;;;;;;;;;;;;;;;4.00;94.83;99877.19;4877721;29;19923;-73
2023/12/14 02:09:14;;;;;;;;;;;;;;;4.00;95.26;99877.19;4879193;29;20024;-73
2023/12/14 02:12:18;;;;;;;;;;;;;;;4.00;95.77;99889.28;4883037;29;19927;-73
2023/12/14 02:15:21;;;;;;;;;;;;;;;3.94;96.36;99887.75;4878231;29;19923;-73
2023/12/14 02:18:25;;;;;;;;;;;;;;;3.99;96.02;99895.34;4878339;29;20325;-73
2023/12/14 02:21:28;;;;;;;;;;;;;;;3.89;95.76;99900.88;4875085;29;19923;-73
2023/12/14 02:24:31;;;;;;;;;;;;;;;4.01;96.19;99909.09;4878233;29;19975;-73
2023/12/14 02:27:33;;;;;;;;;;;;;;;3.97;96.40;99904.00;4879706;29;19922;-73
2023/12/14 02:30:36;;;;;;;;;;;;;;;3.93;96.63;99907.63;4880393;29;19922;-73
2023/12/14 02:33:39;;;;;;;;;;;;;;;3.94;96.56;99898.94;4876833;29;19926;-73
2023/12/14 02:36:42;;;;;;;;;;;;;;;4.06;96.03;99907.19;4864197;29;19965;-74
2023/12/14 02:39:47;;;;;;;;;;;;;;;4.08;96.26;99916.56;4880738;29;19926;-74
2023/12/14 02:42:50;;;;;;;;;;;;;;;4.09;95.46;99912.25;4889333;29;19972;-73
2023/12/14 02:45:55;;;;;;;;;;;;;;;4.09;96.10;99912.25;4883221;29;19942;-73
2023/12/14 02:48:58;;;;;;;;;;;;;;;4.10;95.89;99919.09;4885045;29;19984;-73
2023/12/14 02:52:01;;;;;;;;;;;;;;;4.15;96.08;99927.56;4887909;29;19996;-73
2023/12/14 02:55:04;;;;;;;;;;;;;;;4.10;96.17;99929.47;4891381;29;20059;-73
2023/12/14 02:58:07;;;;;;;;;;;;;;;4.12;96.57;99932.84;4891375;29;20284;-73
2023/12/14 03:01:11;;;;;;;;;;;;;;;4.14;96.56;99938.78;4891751;29;19927;-73
2023/12/14 03:04:14;;;;;;;;;;;;;;;4.23;96.72;99940.22;4882036;29;19966;-73
2023/12/14 03:07:19;;;;;;;;;;;;;;;4.14;96.27;99943.97;4894120;29;20014;-73
2023/12/14 03:10:22;;;;;;;;;;;;;;;4.17;97.09;99951.63;4889266;29;20400;-73
2023/12/14 03:13:25;;;;;;;;;;;;;;;4.17;97.20;99946.44;4890639;29;19958;-73
2023/12/14 03:16:28;;;;;;;;;;;;;;;4.22;96.94;99949.72;4893108;29;19986;-73
2023/12/14 03:19:31;;;;;;;;;;;;;;;4.15;97.34;99963.78;4895918;29;20382;-73
2023/12/14 03:22:34;;;;;;;;;;;;;;;4.22;97.19;99965.25;4889904;29;19971;-74
2023/12/14 03:25:37;;;;;;;;;;;;;;;4.23;97.42;99966.94;4894737;29;19942;-73
2023/12/14 03:28:40;;;;;;;;;;;;;;;4.25;97.40;99964.31;4890977;29;19922;-74
2023/12/14 03:31:43;;;;;;;;;;;;;;;4.25;97.48;99970.31;4889342;29;19962;-74
2023/12/14 03:34:46;;;;;;;;;;;;;;;4.28;97.58;99975.41;4893679;29;20010;-74
2023/12/14 03:37:49;;;;;;;;;;;;;;;4.28;97.59;99985.75;4891371;29;20059;-74
2023/12/14 03:40:52;;;;;;;;;;;;;;;4.30;97.77;99989.09;4885681;29;19926;-73
2023/12/14 03:43:55;;;;;;;;;;;;;;;4.39;98.06;99988.78;4893312;29;20429;-73
2023/12/14 03:46:59;;;;;;;;;;;;;;;4.38;97.77;99994.03;4890512;29;19926;-73
2023/12/14 03:50:03;;;;;;;;;;;;;;;4.42;98.15;99995.59;4886273;29;19923;-73
2023/12/14 03:53:06;;;;;;;;;;;;;;;4.44;97.99;100006.75;4892510;29;19926;-73
2023/12/14 03:56:09;;;;;;;;;;;;;;;4.43;97.96;100007.66;4888148;29;19922;-73
2023/12/14 03:59:12;;;;;;;;;;;;;;;4.42;98.27;100009.41;4888748;29;19921;-73
2023/12/14 04:02:15;;;;;;;;;;;;;;;4.38;98.14;100022.50;4890633;29;20014;-73
2023/12/14 04:05:18;;;;;;;;;;;;;;;4.39;98.46;100025.03;4886322;29;19998;-73
2023/12/14 04:08:21;;;;;;;;;;;;;;;4.49;98.40;100033.31;4880798;29;20399;-73
2023/12/14 04:11:24;;;;;;;;;;;;;;;4.51;98.36;100034.13;4883217;29;19935;-73
2023/12/14 04:14:27;;;;;;;;;;;;;;;4.50;98.11;100031.56;4890434;29;20066;-73
2023/12/14 04:17:30;;;;;;;;;;;;;;;4.60;97.80;100038.13;4888070;29;19938;-73
2023/12/14 04:20:33;;;;;;;;;;;;;;;4.57;98.38;100054.63;4887204;29;19926;-73
2023/12/14 04:23:37;;;;;;;;;;;;;;;4.55;98.55;100047.78;4886244;29;19963;-73
2023/12/14 04:26:39;;;;;;;;;;;;;;;4.54;99.36;100051.28;4889213;29;19922;-73
2023/12/14 04:29:43;;;;;;;;;;;;;;;4.56;99.74;100052.94;4888981;29;20022;-73
2023/12/14 04:32:47;;;;;;;;;;;;;;;4.55;99.93;100055.56;4888700;29;20349;-73
2023/12/14 04:35:50;;;;;;;;;;;;;;;4.59;99.98;100059.72;4886101;29;19958;-73
2023/12/14 04:38:53;;;;;;;;;;;;;;;4.66;99.43;100066.41;4889648;29;19951;-73
2023/12/14 04:41:56;;;;;;;;;;;;;;;4.67;99.18;100057.72;4890137;29;20394;-73
2023/12/14 04:44:59;;;;;;;;;;;;;;;4.63;98.78;100062.19;4890423;29;19927;-73
2023/12/14 04:48:01;;;;;;;;;;;;;;;4.60;99.35;100064.88;4896381;29;19922;-73
2023/12/14 04:51:05;;;;;;;;;;;;;;;4.62;99.78;100067.38;4899140;29;19963;-73
2023/12/14 04:54:08;;;;;;;;;;;;;;;4.62;99.58;100072.56;4894060;29;19965;-73
2023/12/14 04:57:12;;;;;;;;;;;;;;;4.63;99.36;100080.31;4883701;29;20353;-73
2023/12/14 05:00:15;;;;;;;;;;;;;;;4.64;99.62;100088.91;4880157;29;19923;-73
2023/12/14 05:03:18;;;;;;;;;;;;;;;4.71;99.80;100098.16;4885170;29;19922;-73
2023/12/14 05:06:21;;;;;;;;;;;;;;;4.74;99.63;100107.56;4886493;29;20391;-73
2023/12/14 05:09:24;;;;;;;;;;;;;;;4.74;99.76;100110.16;4878884;29;19922;-73
2023/12/14 05:12:29;;;;;;;;;;;;;;;4.73;99.51;100111.91;4884984;29;19979;-73
2023/12/14 05:15:32;;;;;;;;;;;;;;;4.74;100.00;100120.50;4883207;29;19939;-73
2023/12/14 05:18:35;;;;;;;;;;;;;;;4.71;100.00;100124.06;4883800;29;19931;-73
2023/12/14 05:21:39;;;;;;;;;;;;;;;4.80;100.00;100130.66;4882867;29;19922;-73
2023/12/14 05:24:42;;;;;;;;;;;;;;;4.75;99.97;100130.81;4884994;29;19944;-73
2023/12/14 05:27:45;;;;;;;;;;;;;;;4.82;99.97;100147.00;4888205;29;19954;-74
2023/12/14 05:30:48;;;;;;;;;;;;;;;4.85;100.00;100152.94;4888084;29;19959;-73
2023/12/14 05:33:51;;;;;;;;;;;;;;;4.88;100.00;100146.78;4880137;29;20399;-73
2023/12/14 05:36:54;;;;;;;;;;;;;;;4.88;100.00;100160.59;4888812;29;19922;-73
2023/12/14 05:39:57;;;;;;;;;;;;;;;4.87;100.00;100166.66;4888345;29;20292;-73
2023/12/14 05:43:01;;;;;;;;;;;;;;;4.87;100.00;100171.84;4885035;29;19986;-73
2023/12/14 05:46:04;;;;;;;;;;;;;;;4.84;100.00;100171.94;4883638;29;19967;-74
2023/12/14 05:49:07;;;;;;;;;;;;;;;4.91;100.00;100172.56;4878160;29;20399;-74
2023/12/14 05:52:11;;;;;;;;;;;;;;;4.88;100.00;100175.25;4892609;29;19926;-73
2023/12/14 05:55:15;;;;;;;;;;;;;;;4.92;100.00;100178.63;4893116;29;19922;-73
2023/12/14 05:58:19;;;;;;;;;;;;;;;4.95;100.00;100184.53;4882932;29;19922;-73
2023/12/14 06:01:23;;;;;;;;;;;;;;;4.95;100.00;100183.69;4889879;29;20329;-71
2023/12/14 06:04:27;;;;;;;;;;;;;;;4.96;100.00;100195.75;4889037;29;20459;-72
2023/12/14 06:07:30;;;;;;;;;;;;;;;5.05;100.00;100198.88;4890594;29;19965;-72
2023/12/14 06:10:33;;;;;;;;;;;;;;;5.07;99.97;100203.97;4887940;29;19922;-71
2023/12/14 06:13:37;;;;;;;;;;;;;;;5.08;100.00;100214.31;4882771;29;20366;-72
2023/12/14 06:16:40;;;;;;;;;;;;;;;5.07;100.00;100215.22;4889604;29;19971;-72
2023/12/14 06:19:44;;;;;;;;;;;;;;;5.13;100.00;100211.53;4889599;29;19922;-70
2023/12/14 06:22:47;;;;;;;;;;;;;;;5.18;99.90;100222.59;4888229;29;19970;-72
2023/12/14 06:25:50;;;;;;;;;;;;;;;5.11;100.00;100226.31;4887063;29;19945;-73
2023/12/14 06:28:54;;;;;;;;;;;;;;;5.11;100.00;100241.88;4886777;29;19931;-73
2023/12/14 06:31:56;;;;;;;;;;;;;;;4.99;100.00;100234.50;4888965;29;19959;-73
2023/12/14 06:35:04;;;;;;;;;;;;;;;5.04;100.00;100243.81;4886796;29;19922;-74
2023/12/14 06:38:16;;;;;;;;;;;;;;;5.02;100.00;100255.13;4886219;29;19923;-74
2023/12/14 06:41:21;;;;;;;;;;;;;;;5.13;100.00;100263.38;4889113;29;19926;-74
2023/12/14 06:44:27;;;;;;;;;;;;;;;5.14;100.00;100267.69;4888114;29;19922;-73
2023/12/14 06:47:37;;;;;;;;;;;;;;;5.23;100.00;100266.50;4890551;29;20058;-73
2023/12/14 06:50:41;;;;;;;;;;;;;;;5.20;100.00;100275.25;4883631;29;20296;-72
2023/12/14 06:53:45;;;;;;;;;;;;;;;5.23;100.00;100271.69;4881954;29;19930;-72
2023/12/14 06:56:49;;;;;;;;;;;;;;;5.13;100.00;100286.69;4889859;29;19931;-72
2023/12/14 06:59:52;;;;;;;;;;;;;;;5.20;100.00;100285.63;4889681;29;19922;-72
2023/12/14 07:02:55;;;;;;;;;;;;;;;5.31;100.00;100299.03;4889617;29;19922;-72
2023/12/14 07:05:58;;;;;;;;;;;;;;;5.31;100.00;100299.03;4892385;29;20333;-72
2023/12/14 07:09:02;;;;;;;;;;;;;;;5.27;100.00;100302.66;4890172;29;19987;-72
2023/12/14 07:12:05;;;;;;;;;;;;;;;5.29;100.00;100316.38;4886023;29;20496;-72
2023/12/14 07:15:09;;;;;;;;;;;;;;;5.32;100.00;100329.25;4886690;29;20018;-72
2023/12/14 07:18:12;;;;;;;;;;;;;;;5.33;100.00;100325.78;4889171;29;19930;-73
2023/12/14 07:21:15;;;;;;;;;;;;;;;5.27;100.00;100333.75;4890419;29;20704;-72
2023/12/14 07:24:19;;;;;;;;;;;;;;;5.35;100.00;100342.13;4887888;29;19962;-77
2023/12/14 07:27:22;;;;;;;;;;;;;;;5.41;100.00;100348.00;4886122;29;19926;-73
2023/12/14 07:30:25;;;;;;;;;;;;;;;5.42;100.00;100354.88;4889417;29;20064;-76
2023/12/14 07:33:28;;;;;;;;;;;;;;;5.35;100.00;100362.84;4886589;29;19926;-72
2023/12/14 07:36:31;;;;;;;;;;;;;;;5.42;100.00;100360.06;4885033;29;20321;-72
2023/12/14 07:39:34;;;;;;;;;;;;;;;5.45;100.00;100380.69;4887339;29;20248;-73
2023/12/14 07:42:37;;;;;;;;;;;;;;;5.41;100.00;100384.31;4892285;29;19963;-74
2023/12/14 07:45:40;;;;;;;;;;;;;;;5.44;100.00;100384.19;4887615;29;19926;-72
2023/12/14 07:48:43;;;;;;;;;;;;;;;5.47;100.00;100390.13;4886163;29;19926;-72
2023/12/14 07:51:46;;;;;;;;;;;;;;;5.52;100.00;100402.94;4887356;29;20370;-72
2023/12/14 07:54:49;;;;;;;;;;;;;;;5.57;100.00;100401.03;4891144;29;19942;-69
2023/12/14 07:57:52;;;;;;;;;;;;;;;5.58;100.00;100408.78;4889762;29;19922;-77
2023/12/14 08:00:55;;;;;;;;;;;;;;;5.52;100.00;100414.19;4889846;29;19931;-73
2023/12/14 08:03:58;;;;;;;;;;;;;;;5.56;100.00;100412.31;4887649;29;19982;-75
2023/12/14 08:07:01;;;;;;;;;;;;;;;5.60;100.00;100419.09;4887857;29;19922;-80
2023/12/14 08:10:04;;;;;;;;;;;;;;;5.61;100.00;100433.75;4887075;29;19930;-76
2023/12/14 08:13:07;;;;;;;;;;;;;;;5.58;100.00;100432.13;4882053;29;20002;-78
2023/12/14 08:16:13;;;;;;;;;;;;;;;5.63;100.00;100437.16;4889589;29;20011;-75
2023/12/14 08:19:16;;;;;;;;;;;;;;;5.70;100.00;100449.00;4889660;29;19963;-76
2023/12/14 08:22:21;;;;;;;;;;;;;;;5.74;100.00;100460.13;4889300;29;20424;-77
2023/12/14 08:25:25;;;;;;;;;;;;;;;5.66;100.00;100460.41;4889405;29;19971;-76
2023/12/14 08:28:28;;;;;;;;;;;;;;;5.69;100.00;100475.88;4886760;29;20002;-76
2023/12/14 08:31:32;;;;;;;;;;;;;;;5.72;100.00;100478.34;4886664;29;19979;-76
2023/12/14 08:34:34;;;;;;;;;;;;;;;5.61;100.00;100485.63;4886935;29;19956;-76
2023/12/14 08:37:39;;;;;;;;;;;;;;;5.62;100.00;100491.69;4885226;29;20312;-76
2023/12/14 08:40:43;;;;;;;;;;;;;;;5.71;100.00;100501.75;4886716;29;19935;-76
2023/12/14 08:43:49;;;;;;;;;;;;;;;5.53;100.00;100500.59;4888442;29;19922;-76
2023/12/14 08:46:53;;;;;;;;;;;;;;;5.69;100.00;100504.41;4888655;29;20375;-75
2023/12/14 08:49:56;;;;;;;;;;;;;;;5.61;100.00;100516.75;4887247;29;19938;-75
2023/12/14 08:52:59;;;;;;;;;;;;;;;5.64;100.00;100519.25;4885494;29;20394;-75
2023/12/14 08:56:03;;;;;;;;;;;;;;;5.70;100.00;100526.84;4887658;29;19921;-75
2023/12/14 08:59:07;;;;;;;;;;;;;;;5.73;100.00;100539.72;4886952;29;19971;-75
2023/12/14 09:02:10;;;;;;;;;;;;;;;5.67;100.00;100550.28;4887138;29;20402;-75
2023/12/14 09:05:15;;;;;;;;;;;;;;;5.79;100.00;100541.28;4887609;29;20341;-75
2023/12/14 09:08:18;;;;;;;;;;;;;;;5.73;100.00;100557.03;4886446;29;19993;-75
2023/12/14 09:11:21;;;;;;;;;;;;;;;5.75;100.00;100570.81;4888967;29;20324;-75
2023/12/14 09:14:24;;;;;;;;;;;;;;;5.90;100.00;100574.66;4886218;29;19930;-76
2023/12/14 09:17:32;;;;;;;;;;;;;;;5.78;100.00;100581.94;4887853;29;20003;-76
2023/12/14 09:20:37;;;;;;;;;;;;;;;5.94;100.00;100590.13;4887056;29;19931;-76
2023/12/14 09:23:41;;;;;;;;;;;;;;;5.99;100.00;100595.16;4886373;29;19922;-76
2023/12/14 09:26:44;;;;;;;;;;;;;;;5.87;100.00;100600.69;4886364;29;19948;-76
2023/12/14 09:29:47;;;;;;;;;;;;;;;5.99;100.00;100608.13;4887570;29;20118;-77
2023/12/14 09:32:50;;;;;;;;;;;;;;;6.16;100.00;100612.78;4889941;29;19925;-77
2023/12/14 09:35:53;;;;;;;;;;;;;;;6.15;100.00;100614.53;4886333;29;20395;-77
2023/12/14 09:38:56;;;;;;;;;;;;;;;6.23;100.00;100627.28;4886811;29;19931;-77
2023/12/14 09:42:04;;;;;;;;;;;;;;;6.20;100.00;100636.00;4888732;29;20026;-77
2023/12/14 09:45:08;;;;;;;;;;;;;;;6.25;100.00;100644.50;4887704;29;19989;-77
2023/12/14 09:48:12;;;;;;;;;;;;;;;6.25;100.00;100643.63;4888133;29;20406;-76
2023/12/14 09:51:16;;;;;;;;;;;;;;;6.42;100.00;100645.69;4886482;29;20058;-77
2023/12/14 09:54:20;;;;;;;;;;;;;;;6.48;100.00;100650.69;4887885;29;19935;-77
2023/12/14 09:57:25;;;;;;;;;;;;;;;6.57;100.00;100650.34;4883195;29;19923;-77
2023/12/14 10:00:35;;;;;;;;;;;;;;;6.57;100.00;100650.34;4886285;29;19931;-76
2023/12/14 10:03:38;;;;;;;;;;;;;;;6.58;100.00;100646.88;4887064;29;20404;-72
2023/12/14 10:06:43;;;;;;;;;;;;;;;6.61;100.00;100661.53;4885312;29;19936;-73
2023/12/14 10:09:50;;;;;;;;;;;;;;;6.65;100.00;100661.34;4885455;29;19988;-73
2023/12/14 10:12:59;;;;;;;;;;;;;;;6.65;100.00;100669.16;4883995;29;20367;-74
2023/12/14 10:16:06;;;;;;;;;;;;;;;6.55;100.00;100683.34;4880803;29;19923;-74
2023/12/14 10:19:26;;;;;;;;;;;;;;;6.51;100.00;100677.41;4883204;29;19922;-74
2023/12/14 10:22:32;;;;;;;;;;;;;;;6.58;100.00;100680.66;4874583;29;20407;-77
2023/12/14 10:26:05;;;;;;;;;;;;;;;6.63;100.00;100681.34;4885210;29;19964;-80
2023/12/14 10:29:09;;;;;;;;;;;;;;;6.71;100.00;100687.13;4880362;29;20291;-72
2023/12/14 10:32:19;;;;;;;;;;;;;;;6.62;100.00;100692.63;4887646;29;19971;-78
2023/12/14 10:35:34;;;;;;;;;;;;;;;6.67;100.00;100697.69;4890619;29;20031;-78
2023/12/14 10:38:40;;;;;;;;;;;;;;;6.68;100.00;100700.22;4889228;29;19935;-77
2023/12/14 10:41:47;;;;;;;;;;;;;;;6.69;100.00;100709.72;4879028;29;20030;-75
2023/12/14 10:44:54;;;;;;;;;;;;;;;6.79;100.00;100714.59;4886873;29;19989;-76
2023/12/14 10:48:00;;;;;;;;;;;;;;;6.84;100.00;100712.72;4905847;29;20054;-77
2023/12/14 10:51:05;;;;;;;;;;;;;;;6.87;100.00;100720.41;4898559;29;20014;-76
2023/12/14 10:54:10;;;;;;;;;;;;;;;6.88;100.00;100725.53;4908106;29;19926;-76
2023/12/14 10:57:14;;;;;;;;;;;;;;;6.80;100.00;100729.31;4900000;29;20058;-75
2023/12/14 11:00:19;;;;;;;;;;;;;;;6.83;100.00;100724.88;4897420;29;20018;-75
2023/12/14 11:03:26;;;;;;;;;;;;;;;6.93;100.00;100735.81;4892035;29;19986;-75
2023/12/14 11:06:36;;;;;;;;;;;;;;;6.91;100.00;100741.03;4893340;29;19963;-75
2023/12/14 11:09:44;;;;;;;;;;;;;;;7.03;100.00;100746.75;4909648;29;19969;-75
2023/12/14 11:12:52;;;;;;;;;;;;;;;7.00;100.00;100747.69;4898419;29;20008;-74
2023/12/14 11:15:56;;;;;;;;;;;;;;;7.00;100.00;100747.69;4898309;29;19922;-75
2023/12/14 11:19:22;;;;;;;;;;;;;;;6.94;100.00;100751.31;4909385;29;19994;-74
2023/12/14 11:22:27;;;;;;;;;;;;;;;6.99;100.00;100752.03;4907246;29;19926;-74
2023/12/14 11:25:37;;;;;;;;;;;;;;;7.03;100.00;100755.38;4909480;29;20031;-74
2023/12/14 11:28:45;;;;;;;;;;;;;;;7.04;100.00;100764.88;4906551;29;20026;-75
2023/12/14 11:31:53;;;;;;;;;;;;;;;6.91;100.00;100764.44;4906596;29;20398;-74
2023/12/14 11:34:57;;;;;;;;;;;;;;;6.91;100.00;100767.03;4908707;29;20391;-76
2023/12/14 11:38:09;;;;;;;;;;;;;;;6.86;100.00;100773.28;4899815;29;19943;-77
2023/12/14 11:41:14;;;;;;;;;;;;;;;6.71;100.00;100785.88;4905554;29;20348;-75
2023/12/14 11:44:29;;;;;;;;;;;;;;;6.56;100.00;100786.38;4902460;29;19921;-74
2023/12/14 11:47:32;;;;;;;;;;;;;;;6.31;100.00;100795.81;4899806;29;20011;-74
2023/12/14 11:50:36;;;;;;;;;;;;;;;6.26;100.00;100796.81;4902182;29;20010;-74
2023/12/14 11:53:43;;;;;;;;;;;;;;;6.24;100.00;100801.19;4895435;29;19927;-74
2023/12/14 11:56:48;;;;;;;;;;;;;;;6.36;100.00;100802.56;4897964;29;19938;-74
2023/12/14 11:59:52;;;;;;;;;;;;;;;6.24;100.00;100808.97;4887472;29;19926;-74
2023/12/14 12:03:12;;;;;;;;;;;;;;;6.25;100.00;100802.91;4910782;29;19922;-75
2023/12/14 12:06:25;;;;;;;;;;;;;;;6.44;100.00;100805.75;4913021;29;19947;-76
2023/12/14 12:09:36;;;;;;;;;;;;;;;6.23;100.00;100812.47;4906871;29;19926;-74
2023/12/14 12:12:41;;;;;;;;;;;;;;;6.26;100.00;100807.19;4908039;29;20021;-74
2023/12/14 12:19:42;;;;;;;;;;;;;;;6.38;100.00;100823.28;4900409;29;19921;-74
2023/12/14 12:22:47;;;;;;;;;;;;;;;6.44;100.00;100825.69;4894770;29;19972;-74
2023/12/14 12:25:55;;;;;;;;;;;;;;;6.46;100.00;100821.31;4911849;29;19958;-74
2023/12/14 12:28:59;;;;;;;;;;;;;;;6.52;100.00;100824.59;4896711;29;19938;-75
2023/12/14 12:32:04;;;;;;;;;;;;;;;6.58;100.00;100817.50;4908091;29;19921;-74
2023/12/14 12:35:09;;;;;;;;;;;;;;;6.82;100.00;100816.72;4898862;29;20312;-74
2023/12/14 12:38:14;;;;;;;;;;;;;;;6.77;100.00;100818.63;4904998;29;19921;-75
2023/12/14 12:41:17;;;;;;;;;;;;;;;6.83;100.00;100818.44;4887941;29;19934;-74
2023/12/14 12:44:21;;;;;;;;;;;;;;;6.51;99.80;100822.88;4887517;29;19922;-74
2023/12/14 12:47:24;;;;;;;;;;;;;;;6.59;100.00;100825.25;4887007;29;20391;-74
2023/12/14 12:50:27;;;;;;;;;;;;;;;6.72;100.00;100821.34;4888973;29;20048;-74
2023/12/14 12:53:30;;;;;;;;;;;;;;;6.74;100.00;100819.56;4890029;29;20065;-74
2023/12/14 12:56:33;;;;;;;;;;;;;;;6.69;100.00;100820.59;4887868;29;19922;-74
2023/12/14 12:59:37;;;;;;;;;;;;;;;6.53;100.00;100828.03;4886196;29;19980;-75
2023/12/14 13:02:40;;;;;;;;;;;;;;;6.70;100.00;100833.56;4884257;29;20458;-75
2023/12/14 13:05:45;;;;;;;;;;;;;;;7.14;100.00;100828.66;4885981;29;19926;-74
2023/12/14 13:08:48;;;;;;;;;;;;;;;7.29;100.00;100831.66;4888279;29;19950;-74
2023/12/14 13:11:52;;;;;;;;;;;;;;;7.16;99.35;100837.28;4888495;29;19925;-74
2023/12/14 13:14:55;;;;;;;;;;;;;;;7.26;99.17;100839.56;4887609;29;20416;-75
2023/12/14 13:17:59;;;;;;;;;;;;;;;6.98;99.17;100849.09;4887292;29;20420;-76
2023/12/14 13:21:02;;;;;;;;;;;;;;;7.02;99.80;100851.63;4888947;29;19922;-77
2023/12/14 13:24:06;;;;;;;;;;;;;;;6.66;99.83;100860.53;4888693;29;20492;-79
2023/12/14 13:27:09;;;;;;;;;;;;;;;6.54;99.58;100860.91;4887367;29;19999;-75
2023/12/14 13:30:16;;;;;;;;;;;;;;;6.59;100.00;100873.75;4886960;29;19978;-77
2023/12/14 13:33:20;;;;;;;;;;;;;;;6.36;98.47;100885.69;4886525;29;19927;-76
2023/12/14 13:36:23;;;;;;;;;;;;;;;6.26;98.51;100892.03;4878350;29;19922;-76
2023/12/14 13:39:27;;;;;;;;;;;;;;;6.34;99.38;100887.47;4877863;29;19922;-76
2023/12/14 13:42:59;;;;;;;;;;;;;;;6.51;98.59;100889.59;4882361;29;19922;-75
2023/12/14 13:46:02;;;;;;;;;;;;;;;6.56;97.93;100902.44;4885612;29;19926;-75
2023/12/14 13:49:05;;;;;;;;;;;;;;;6.33;97.04;100910.91;4885427;29;20001;-75
2023/12/14 13:52:09;;;;;;;;;;;;;;;6.20;98.17;100916.44;4880088;29;19923;-75
2023/12/14 13:55:12;;;;;;;;;;;;;;;6.27;97.37;100917.94;4885168;29;19923;-75
2023/12/14 13:58:15;;;;;;;;;;;;;;;6.47;96.52;100919.13;4887375;29;20323;-75
2023/12/14 14:01:21;;;;;;;;;;;;;;;6.62;95.45;100931.69;4883318;29;19927;-74
2023/12/14 14:05:38;;;;;;;;;;;;;;;6.46;94.37;100944.25;4887258;29;19926;-75
2023/12/14 14:08:45;;;;;;;;;;;;;;;6.23;94.66;100937.13;4892847;29;19954;-73
2023/12/14 14:11:50;;;;;;;;;;;;;;;6.29;94.69;100949.09;4888492;29;20410;-73
2023/12/14 14:14:53;;;;;;;;;;;;;;;6.44;93.66;100951.22;4887703;29;19986;-73
2023/12/14 14:17:57;;;;;;;;;;;;;;;6.21;91.81;100958.81;4884461;29;19931;-74
2023/12/14 14:21:01;;;;;;;;;;;;;;;6.05;90.89;100969.63;4896885;29;19970;-74
2023/12/14 14:24:05;;;;;;;;;;;;;;;6.11;90.06;100981.59;4891568;29;20018;-74
2023/12/14 14:27:08;;;;;;;;;;;;;;;6.01;90.13;100985.31;4890922;29;19922;-73
2023/12/14 14:30:12;;;;;;;;;;;;;;;5.94;90.98;100996.75;4892027;29;19922;-74
2023/12/14 14:33:18;;;;;;;;;;;;;;;5.82;91.01;101003.91;4892331;29;19926;-74
2023/12/14 14:36:21;;;;;;;;;;;;;;;5.90;92.71;101011.50;4890963;29;19971;-74
2023/12/14 14:39:24;;;;;;;;;;;;;;;6.12;92.68;101019.63;4885782;29;19959;-73
2023/12/14 14:42:28;;;;;;;;;;;;;;;6.32;92.16;101018.25;4885640;29;20041;-74
2023/12/14 14:45:32;;;;;;;;;;;;;;;6.39;92.16;101017.22;4891551;29;20282;-73
2023/12/14 14:48:37;;;;;;;;;;;;;;;6.44;92.77;101031.75;4889611;29;19965;-74
2023/12/14 14:51:40;;;;;;;;;;;;;;;6.36;91.25;101040.69;4889868;29;20017;-74
2023/12/14 14:54:44;;;;;;;;;;;;;;;6.29;90.26;101051.22;4894505;29;20420;-73
2023/12/14 14:57:48;;;;;;;;;;;;;;;6.18;91.12;101061.03;4900851;29;19921;-74
2023/12/14 15:00:51;;;;;;;;;;;;;;;6.34;91.77;101058.03;4900514;29;19970;-74
2023/12/14 15:04:33;;;;;;;;;;;;;;;6.23;91.03;101074.75;4901119;29;19965;-74
2023/12/14 15:07:37;;;;;;;;;;;;;;;6.14;90.79;101074.97;4900901;29;19922;-74
2023/12/14 15:10:41;;;;;;;;;;;;;;;6.02;90.45;101088.25;4900683;29;20328;-74
2023/12/14 15:13:45;;;;;;;;;;;;;;;6.01;91.09;101089.16;4900733;29;20022;-75
2023/12/14 15:16:48;;;;;;;;;;;;;;;6.25;92.16;101100.66;4900996;29;19922;-74
2023/12/14 15:19:51;;;;;;;;;;;;;;;6.34;93.82;101103.03;4900372;29;19965;-73
2023/12/14 15:22:54;;;;;;;;;;;;;;;6.23;95.36;101112.84;4900695;29;20033;-74
2023/12/14 15:25:57;;;;;;;;;;;;;;;6.41;94.62;101106.31;4900425;29;19922;-74
2023/12/14 15:29:00;;;;;;;;;;;;;;;6.29;95.77;101113.56;4900504;29;19963;-74
2023/12/14 15:32:03;;;;;;;;;;;;;;;6.26;96.47;101118.81;4891969;29;19922;-77
2023/12/14 15:35:06;;;;;;;;;;;;;;;6.08;98.45;101136.59;4900603;29;19930;-75
2023/12/14 15:38:10;;;;;;;;;;;;;;;6.13;98.24;101140.78;4900528;29;19923;-74
2023/12/14 15:41:13;;;;;;;;;;;;;;;6.22;97.86;101145.78;4900033;29;19927;-75
2023/12/14 15:44:17;;;;;;;;;;;;;;;6.21;97.92;101154.44;4900271;29;19963;-81
2023/12/14 15:47:21;;;;;;;;;;;;;;;6.27;97.32;101151.69;4901274;29;20377;-75
2023/12/14 15:50:24;;;;;;;;;;;;;;;6.18;97.39;101162.28;4896056;29;19922;-73
2023/12/14 15:53:28;;;;;;;;;;;;;;;6.07;94.75;101169.50;4899974;29;20014;-74
2023/12/14 15:56:31;;;;;;;;;;;;;;;6.15;95.09;101164.97;4900070;29;19963;-75
2023/12/14 15:59:34;;;;;;;;;;;;;;;6.24;94.31;101163.91;4900015;29;20299;-74
2023/12/14 16:02:37;;;;;;;;;;;;;;;6.26;95.04;101181.16;4899902;29;19978;-74